sensor_id;sensor_type;location;lat;lon;timestamp;pressure;altitude;pressure_sealevel;temperature;humidity
70370;BME280;57790;51.356;-2.906;2023-05-21T00:01:03;102464.38;;;17.58;100.00
70370;BME280;57790;51.356;-2.906;2023-05-21T00:04:05;102456.16;;;17.51;100.00
70370;BME280;57790;51.356;-2.906;2023-05-21T00:07:09;102461.16;;;17.46;100.00
70370;BME280;57790;51.356;-2.906;2023-05-21T00:10:09;102458.31;;;17.39;100.00
70370;BME280;57790;51.356;-2.906;2023-05-21T00:13:10;102451.94;;;17.40;100.00
70370;BME280;57790;51.356;-2.906;2023-05-21T00:16:10;102450.91;;;17.33;100.00
70370;BME280;57790;51.356;-2.906;2023-05-21T00:19:11;102447.22;;;17.34;100.00
70370;BME280;57790;51.356;-2.906;2023-05-21T00:22:11;102445.22;;;17.28;100.00
70370;BME280;57790;51.356;-2.906;2023-05-21T00:25:13;102444.22;;;17.29;100.00
70370;BME280;57790;51.356;-2.906;2023-05-21T00:28:13;102438.00;;;17.29;100.00
70370;BME280;57790;51.356;-2.906;2023-05-21T00:31:14;102437.84;;;17.22;100.00
70370;BME280;57790;51.356;-2.906;2023-05-21T00:34:15;102446.53;;;17.16;100.00
70370;BME280;57790;51.356;-2.906;2023-05-21T00:37:15;102439.97;;;17.10;100.00
70370;BME280;57790;51.356;-2.906;2023-05-21T00:40:17;102435.78;;;17.08;100.00
70370;BME280;57790;51.356;-2.906;2023-05-21T00:43:18;102437.09;;;17.04;100.00
70370;BME280;57790;51.356;-2.906;2023-05-21T00:46:20;102436.56;;;16.92;100.00
70370;BME280;57790;51.356;-2.906;2023-05-21T00:49:21;102444.91;;;16.89;100.00
70370;BME280;57790;51.356;-2.906;2023-05-21T00:52:23;102441.56;;;16.87;100.00
70370;BME280;57790;51.356;-2.906;2023-05-21T00:55:26;102458.31;;;16.81;100.00
70370;BME280;57790;51.356;-2.906;2023-05-21T00:58:27;102451.72;;;16.75;100.00
70370;BME280;57790;51.356;-2.906;2023-05-21T01:01:28;102456.41;;;16.73;100.00
70370;BME280;57790;51.356;-2.906;2023-05-21T01:04:33;102464.13;;;16.76;100.00
70370;BME280;57790;51.356;-2.906;2023-05-21T01:07:33;102460.72;;;16.66;100.00
70370;BME280;57790;51.356;-2.906;2023-05-21T01:10:35;102454.38;;;16.67;100.00
70370;BME280;57790;51.356;-2.906;2023-05-21T01:13:38;102449.31;;;16.64;100.00
70370;BME280;57790;51.356;-2.906;2023-05-21T01:16:42;102447.44;;;16.56;100.00
70370;BME280;57790;51.356;-2.906;2023-05-21T01:19:45;102444.25;;;16.53;100.00
70370;BME280;57790;51.356;-2.906;2023-05-21T01:22:52;102437.38;;;16.50;100.00
70370;BME280;57790;51.356;-2.906;2023-05-21T01:25:53;102434.22;;;16.55;100.00
70370;BME280;57790;51.356;-2.906;2023-05-21T01:28:53;102435.38;;;16.52;100.00
70370;BME280;57790;51.356;-2.906;2023-05-21T01:35:21;102441.00;;;16.41;100.00
70370;BME280;57790;51.356;-2.906;2023-05-21T01:38:48;102445.16;;;16.35;100.00
70370;BME280;57790;51.356;-2.906;2023-05-21T01:41:47;102451.13;;;16.29;100.00
70370;BME280;57790;51.356;-2.906;2023-05-21T01:44:54;102440.38;;;16.21;100.00
70370;BME280;57790;51.356;-2.906;2023-05-21T01:47:56;102438.00;;;16.18;100.00
70370;BME280;57790;51.356;-2.906;2023-05-21T01:50:59;102443.34;;;16.18;100.00
70370;BME280;57790;51.356;-2.906;2023-05-21T01:54:01;102445.00;;;16.11;100.00
70370;BME280;57790;51.356;-2.906;2023-05-21T01:57:01;102440.97;;;16.07;100.00
70370;BME280;57790;51.356;-2.906;2023-05-21T02:00:03;102437.88;;;16.02;100.00
70370;BME280;57790;51.356;-2.906;2023-05-21T02:03:04;102442.56;;;16.00;100.00
70370;BME280;57790;51.356;-2.906;2023-05-21T02:06:05;102438.53;;;15.96;100.00
70370;BME280;57790;51.356;-2.906;2023-05-21T02:09:05;102440.53;;;15.94;100.00
70370;BME280;57790;51.356;-2.906;2023-05-21T02:12:07;102443.50;;;15.91;100.00
70370;BME280;57790;51.356;-2.906;2023-05-21T02:15:08;102439.97;;;15.90;100.00
70370;BME280;57790;51.356;-2.906;2023-05-21T02:18:09;102451.47;;;15.83;100.00
70370;BME280;57790;51.356;-2.906;2023-05-21T02:21:10;102451.09;;;15.77;100.00
70370;BME280;57790;51.356;-2.906;2023-05-21T02:24:13;102454.44;;;15.80;100.00
70370;BME280;57790;51.356;-2.906;2023-05-21T02:27:13;102455.38;;;15.70;100.00
70370;BME280;57790;51.356;-2.906;2023-05-21T02:30:16;102456.00;;;15.64;100.00
70370;BME280;57790;51.356;-2.906;2023-05-21T02:33:17;102456.84;;;15.65;100.00
70370;BME280;57790;51.356;-2.906;2023-05-21T02:36:19;102459.94;;;15.60;100.00
70370;BME280;57790;51.356;-2.906;2023-05-21T02:39:19;102454.34;;;15.54;100.00
70370;BME280;57790;51.356;-2.906;2023-05-21T02:42:23;102462.84;;;15.49;100.00
70370;BME280;57790;51.356;-2.906;2023-05-21T02:45:23;102459.75;;;15.44;100.00
70370;BME280;57790;51.356;-2.906;2023-05-21T02:48:23;102458.53;;;15.38;100.00
70370;BME280;57790;51.356;-2.906;2023-05-21T02:51:24;102465.72;;;15.38;100.00
70370;BME280;57790;51.356;-2.906;2023-05-21T02:54:24;102468.69;;;15.35;100.00
70370;BME280;57790;51.356;-2.906;2023-05-21T02:57:25;102460.97;;;15.32;100.00
70370;BME280;57790;51.356;-2.906;2023-05-21T03:00:25;102467.47;;;15.29;100.00
70370;BME280;57790;51.356;-2.906;2023-05-21T03:03:26;102460.06;;;15.23;100.00
70370;BME280;57790;51.356;-2.906;2023-05-21T03:06:26;102458.28;;;15.14;100.00
70370;BME280;57790;51.356;-2.906;2023-05-21T03:09:26;102468.66;;;15.17;100.00
70370;BME280;57790;51.356;-2.906;2023-05-21T03:12:27;102462.63;;;15.15;100.00
70370;BME280;57790;51.356;-2.906;2023-05-21T03:15:27;102454.38;;;15.08;100.00
70370;BME280;57790;51.356;-2.906;2023-05-21T03:18:32;102447.63;;;15.04;100.00
70370;BME280;57790;51.356;-2.906;2023-05-21T03:21:32;102445.38;;;15.09;100.00
70370;BME280;57790;51.356;-2.906;2023-05-21T03:24:33;102454.28;;;15.00;100.00
70370;BME280;57790;51.356;-2.906;2023-05-21T03:27:34;102441.84;;;14.91;100.00
70370;BME280;57790;51.356;-2.906;2023-05-21T03:30:35;102435.66;;;14.91;100.00
70370;BME280;57790;51.356;-2.906;2023-05-21T03:33:36;102434.66;;;14.92;100.00
70370;BME280;57790;51.356;-2.906;2023-05-21T03:36:36;102429.91;;;14.85;100.00
70370;BME280;57790;51.356;-2.906;2023-05-21T03:39:36;102435.69;;;14.81;100.00
70370;BME280;57790;51.356;-2.906;2023-05-21T03:42:37;102448.91;;;14.82;100.00
70370;BME280;57790;51.356;-2.906;2023-05-21T03:45:37;102444.53;;;14.81;100.00
70370;BME280;57790;51.356;-2.906;2023-05-21T03:48:38;102443.88;;;14.70;100.00
70370;BME280;57790;51.356;-2.906;2023-05-21T03:51:38;102439.53;;;14.69;100.00
70370;BME280;57790;51.356;-2.906;2023-05-21T03:54:38;102440.16;;;14.63;100.00
70370;BME280;57790;51.356;-2.906;2023-05-21T03:57:40;102432.72;;;14.56;100.00
70370;BME280;57790;51.356;-2.906;2023-05-21T04:00:40;102432.84;;;14.55;100.00
70370;BME280;57790;51.356;-2.906;2023-05-21T04:03:41;102429.66;;;14.51;100.00
70370;BME280;57790;51.356;-2.906;2023-05-21T04:06:41;102427.97;;;14.50;100.00
70370;BME280;57790;51.356;-2.906;2023-05-21T04:09:42;102432.75;;;14.47;100.00
70370;BME280;57790;51.356;-2.906;2023-05-21T04:12:42;102439.63;;;14.40;100.00
70370;BME280;57790;51.356;-2.906;2023-05-21T04:15:42;102442.16;;;14.41;100.00
70370;BME280;57790;51.356;-2.906;2023-05-21T04:18:44;102445.09;;;14.38;100.00
70370;BME280;57790;51.356;-2.906;2023-05-21T04:21:45;102446.66;;;14.31;100.00
70370;BME280;57790;51.356;-2.906;2023-05-21T04:24:45;102435.97;;;14.31;100.00
70370;BME280;57790;51.356;-2.906;2023-05-21T04:27:48;102425.91;;;14.25;100.00
70370;BME280;57790;51.356;-2.906;2023-05-21T04:30:49;102429.88;;;14.21;100.00
70370;BME280;57790;51.356;-2.906;2023-05-21T04:33:49;102428.19;;;14.20;100.00
70370;BME280;57790;51.356;-2.906;2023-05-21T04:36:51;102435.88;;;14.23;100.00
70370;BME280;57790;51.356;-2.906;2023-05-21T04:39:53;102430.00;;;14.19;100.00
70370;BME280;57790;51.356;-2.906;2023-05-21T04:42:54;102429.28;;;14.17;100.00
70370;BME280;57790;51.356;-2.906;2023-05-21T04:45:55;102419.91;;;14.13;100.00
70370;BME280;57790;51.356;-2.906;2023-05-21T04:48:56;102429.72;;;14.13;100.00
70370;BME280;57790;51.356;-2.906;2023-05-21T04:51:57;102414.31;;;14.07;100.00
70370;BME280;57790;51.356;-2.906;2023-05-21T04:54:58;102415.56;;;14.03;100.00
70370;BME280;57790;51.356;-2.906;2023-05-21T04:57:58;102409.97;;;13.96;100.00
70370;BME280;57790;51.356;-2.906;2023-05-21T05:00:58;102417.00;;;13.97;100.00
70370;BME280;57790;51.356;-2.906;2023-05-21T05:04:02;102414.03;;;14.00;100.00
70370;BME280;57790;51.356;-2.906;2023-05-21T05:07:02;102405.88;;;14.02;100.00
70370;BME280;57790;51.356;-2.906;2023-05-21T05:10:03;102406.47;;;14.05;100.00
70370;BME280;57790;51.356;-2.906;2023-05-21T05:13:04;102408.97;;;14.07;100.00
70370;BME280;57790;51.356;-2.906;2023-05-21T05:16:07;102418.75;;;14.16;100.00
70370;BME280;57790;51.356;-2.906;2023-05-21T05:19:08;102414.56;;;14.13;100.00
70370;BME280;57790;51.356;-2.906;2023-05-21T05:22:09;102413.28;;;14.17;100.00
70370;BME280;57790;51.356;-2.906;2023-05-21T05:25:09;102418.50;;;14.19;100.00
70370;BME280;57790;51.356;-2.906;2023-05-21T05:28:10;102422.09;;;14.27;100.00
70370;BME280;57790;51.356;-2.906;2023-05-21T05:31:11;102418.44;;;14.28;100.00
70370;BME280;57790;51.356;-2.906;2023-05-21T05:34:11;102422.38;;;14.34;100.00
70370;BME280;57790;51.356;-2.906;2023-05-21T05:37:11;102425.88;;;14.35;100.00
70370;BME280;57790;51.356;-2.906;2023-05-21T05:40:12;102414.22;;;14.36;100.00
70370;BME280;57790;51.356;-2.906;2023-05-21T05:43:12;102415.09;;;14.26;100.00
70370;BME280;57790;51.356;-2.906;2023-05-21T05:46:13;102420.72;;;14.23;100.00
70370;BME280;57790;51.356;-2.906;2023-05-21T05:49:13;102416.91;;;14.26;100.00
70370;BME280;57790;51.356;-2.906;2023-05-21T05:52:14;102422.66;;;14.31;100.00
70370;BME280;57790;51.356;-2.906;2023-05-21T05:55:14;102426.03;;;14.33;100.00
70370;BME280;57790;51.356;-2.906;2023-05-21T05:58:15;102421.53;;;14.34;100.00
70370;BME280;57790;51.356;-2.906;2023-05-21T06:01:15;102429.50;;;14.43;100.00
70370;BME280;57790;51.356;-2.906;2023-05-21T06:04:16;102432.59;;;14.39;100.00
70370;BME280;57790;51.356;-2.906;2023-05-21T06:07:17;102439.22;;;14.35;100.00
70370;BME280;57790;51.356;-2.906;2023-05-21T06:10:17;102432.91;;;14.36;100.00
70370;BME280;57790;51.356;-2.906;2023-05-21T06:13:19;102427.41;;;14.37;100.00
70370;BME280;57790;51.356;-2.906;2023-05-21T06:16:20;102429.38;;;14.45;100.00
70370;BME280;57790;51.356;-2.906;2023-05-21T06:19:20;102437.94;;;14.48;100.00
70370;BME280;57790;51.356;-2.906;2023-05-21T06:22:20;102437.81;;;14.50;100.00
70370;BME280;57790;51.356;-2.906;2023-05-21T06:25:21;102437.50;;;14.53;100.00
70370;BME280;57790;51.356;-2.906;2023-05-21T06:28:21;102439.72;;;14.57;100.00
70370;BME280;57790;51.356;-2.906;2023-05-21T06:31:21;102440.16;;;14.63;100.00
70370;BME280;57790;51.356;-2.906;2023-05-21T06:34:22;102434.91;;;14.71;100.00
70370;BME280;57790;51.356;-2.906;2023-05-21T06:37:22;102440.50;;;14.77;100.00
70370;BME280;57790;51.356;-2.906;2023-05-21T06:40:23;102439.06;;;14.83;100.00
70370;BME280;57790;51.356;-2.906;2023-05-21T06:43:23;102441.41;;;14.86;100.00
70370;BME280;57790;51.356;-2.906;2023-05-21T06:46:24;102447.88;;;14.93;100.00
70370;BME280;57790;51.356;-2.906;2023-05-21T06:49:24;102448.25;;;14.98;100.00
70370;BME280;57790;51.356;-2.906;2023-05-21T06:52:25;102450.63;;;15.01;100.00
70370;BME280;57790;51.356;-2.906;2023-05-21T06:55:26;102457.22;;;15.07;100.00
70370;BME280;57790;51.356;-2.906;2023-05-21T06:58:26;102452.47;;;15.18;100.00
70370;BME280;57790;51.356;-2.906;2023-05-21T07:01:30;102448.97;;;15.18;100.00
70370;BME280;57790;51.356;-2.906;2023-05-21T07:04:31;102448.13;;;15.17;100.00
70370;BME280;57790;51.356;-2.906;2023-05-21T07:07:34;102448.06;;;15.27;100.00
70370;BME280;57790;51.356;-2.906;2023-05-21T07:10:34;102435.22;;;15.31;100.00
70370;BME280;57790;51.356;-2.906;2023-05-21T07:13:35;102441.97;;;15.35;100.00
70370;BME280;57790;51.356;-2.906;2023-05-21T07:16:35;102439.53;;;15.41;100.00
70370;BME280;57790;51.356;-2.906;2023-05-21T07:19:36;102437.22;;;15.46;100.00
70370;BME280;57790;51.356;-2.906;2023-05-21T07:22:37;102430.44;;;15.52;100.00
70370;BME280;57790;51.356;-2.906;2023-05-21T07:25:38;102446.84;;;15.57;100.00
70370;BME280;57790;51.356;-2.906;2023-05-21T07:28:38;102439.28;;;15.62;100.00
70370;BME280;57790;51.356;-2.906;2023-05-21T07:31:38;102445.81;;;15.68;100.00
70370;BME280;57790;51.356;-2.906;2023-05-21T07:34:39;102440.00;;;15.72;100.00
70370;BME280;57790;51.356;-2.906;2023-05-21T07:37:39;102443.91;;;15.78;100.00
70370;BME280;57790;51.356;-2.906;2023-05-21T07:40:40;102442.44;;;15.84;100.00
70370;BME280;57790;51.356;-2.906;2023-05-21T07:43:40;102440.13;;;15.89;100.00
70370;BME280;57790;51.356;-2.906;2023-05-21T07:46:40;102440.38;;;15.95;100.00
70370;BME280;57790;51.356;-2.906;2023-05-21T07:49:41;102438.88;;;16.01;100.00
70370;BME280;57790;51.356;-2.906;2023-05-21T07:52:41;102436.72;;;16.04;100.00
70370;BME280;57790;51.356;-2.906;2023-05-21T07:55:42;102431.44;;;16.13;100.00
70370;BME280;57790;51.356;-2.906;2023-05-21T07:58:46;102436.03;;;16.20;100.00
70370;BME280;57790;51.356;-2.906;2023-05-21T08:01:47;102437.38;;;16.24;100.00
70370;BME280;57790;51.356;-2.906;2023-05-21T08:04:47;102437.06;;;16.27;100.00
70370;BME280;57790;51.356;-2.906;2023-05-21T08:07:47;102437.75;;;16.29;100.00
70370;BME280;57790;51.356;-2.906;2023-05-21T08:10:48;102438.59;;;16.30;100.00
70370;BME280;57790;51.356;-2.906;2023-05-21T08:13:48;102437.22;;;16.26;100.00
70370;BME280;57790;51.356;-2.906;2023-05-21T08:16:49;102436.38;;;16.25;100.00
70370;BME280;57790;51.356;-2.906;2023-05-21T08:19:49;102427.84;;;16.22;100.00
70370;BME280;57790;51.356;-2.906;2023-05-21T08:22:50;102429.81;;;16.20;100.00
70370;BME280;57790;51.356;-2.906;2023-05-21T08:25:50;102435.03;;;16.21;100.00
70370;BME280;57790;51.356;-2.906;2023-05-21T08:28:52;102428.38;;;16.25;100.00
70370;BME280;57790;51.356;-2.906;2023-05-21T08:31:52;102432.03;;;16.24;100.00
70370;BME280;57790;51.356;-2.906;2023-05-21T08:34:53;102435.06;;;16.29;100.00
70370;BME280;57790;51.356;-2.906;2023-05-21T08:37:53;102428.38;;;16.33;100.00
70370;BME280;57790;51.356;-2.906;2023-05-21T08:40:54;102430.63;;;16.38;100.00
70370;BME280;57790;51.356;-2.906;2023-05-21T08:43:55;102425.44;;;16.45;100.00
70370;BME280;57790;51.356;-2.906;2023-05-21T08:47:01;102420.47;;;16.50;100.00
70370;BME280;57790;51.356;-2.906;2023-05-21T08:50:03;102431.03;;;16.51;100.00
70370;BME280;57790;51.356;-2.906;2023-05-21T08:53:03;102423.34;;;16.56;100.00
70370;BME280;57790;51.356;-2.906;2023-05-21T08:56:05;102430.19;;;16.59;100.00
70370;BME280;57790;51.356;-2.906;2023-05-21T08:59:06;102426.38;;;16.61;100.00
70370;BME280;57790;51.356;-2.906;2023-05-21T09:02:07;102430.59;;;16.64;100.00
70370;BME280;57790;51.356;-2.906;2023-05-21T09:05:09;102433.97;;;16.74;100.00
70370;BME280;57790;51.356;-2.906;2023-05-21T09:08:18;102426.16;;;16.81;100.00
70370;BME280;57790;51.356;-2.906;2023-05-21T09:11:20;102419.47;;;16.85;100.00
70370;BME280;57790;51.356;-2.906;2023-05-21T09:14:22;102417.97;;;16.90;100.00
70370;BME280;57790;51.356;-2.906;2023-05-21T09:17:23;102422.03;;;16.94;100.00
70370;BME280;57790;51.356;-2.906;2023-05-21T09:20:25;102426.72;;;17.01;100.00
70370;BME280;57790;51.356;-2.906;2023-05-21T09:23:27;102427.06;;;17.06;100.00
70370;BME280;57790;51.356;-2.906;2023-05-21T09:26:28;102421.38;;;17.09;100.00
70370;BME280;57790;51.356;-2.906;2023-05-21T09:29:28;102416.19;;;17.15;100.00
70370;BME280;57790;51.356;-2.906;2023-05-21T09:32:29;102416.69;;;17.19;100.00
70370;BME280;57790;51.356;-2.906;2023-05-21T09:35:29;102408.50;;;17.20;100.00
70370;BME280;57790;51.356;-2.906;2023-05-21T09:38:32;102412.19;;;17.19;100.00
70370;BME280;57790;51.356;-2.906;2023-05-21T09:41:34;102405.84;;;17.29;100.00
70370;BME280;57790;51.356;-2.906;2023-05-21T09:44:35;102401.16;;;17.31;100.00
70370;BME280;57790;51.356;-2.906;2023-05-21T09:47:43;102400.34;;;17.38;100.00
70370;BME280;57790;51.356;-2.906;2023-05-21T09:50:43;102401.66;;;17.42;100.00
70370;BME280;57790;51.356;-2.906;2023-05-21T09:56:53;102393.97;;;17.55;100.00
70370;BME280;57790;51.356;-2.906;2023-05-21T09:59:53;102392.44;;;17.61;100.00
70370;BME280;57790;51.356;-2.906;2023-05-21T10:02:55;102389.28;;;17.66;100.00
70370;BME280;57790;51.356;-2.906;2023-05-21T10:05:56;102379.75;;;17.71;100.00
70370;BME280;57790;51.356;-2.906;2023-05-21T10:09:00;102381.72;;;17.77;100.00
70370;BME280;57790;51.356;-2.906;2023-05-21T10:12:01;102384.59;;;17.84;100.00
70370;BME280;57790;51.356;-2.906;2023-05-21T10:15:03;102385.75;;;17.90;100.00
70370;BME280;57790;51.356;-2.906;2023-05-21T10:18:05;102380.19;;;17.99;100.00
70370;BME280;57790;51.356;-2.906;2023-05-21T10:21:07;102374.66;;;18.01;100.00
70370;BME280;57790;51.356;-2.906;2023-05-21T10:24:09;102375.97;;;18.05;100.00
70370;BME280;57790;51.356;-2.906;2023-05-21T10:27:10;102369.94;;;18.11;100.00
70370;BME280;57790;51.356;-2.906;2023-05-21T10:30:13;102377.13;;;18.19;100.00
70370;BME280;57790;51.356;-2.906;2023-05-21T10:33:14;102371.25;;;18.23;100.00
70370;BME280;57790;51.356;-2.906;2023-05-21T10:36:19;102355.63;;;18.27;100.00
70370;BME280;57790;51.356;-2.906;2023-05-21T10:39:21;102360.47;;;18.31;100.00
70370;BME280;57790;51.356;-2.906;2023-05-21T10:48:59;102353.00;;;18.50;100.00
70370;BME280;57790;51.356;-2.906;2023-05-21T10:59:11;102340.69;;;18.71;100.00
70370;BME280;57790;51.356;-2.906;2023-05-21T11:02:18;102339.63;;;18.81;100.00
70370;BME280;57790;51.356;-2.906;2023-05-21T11:05:39;102345.13;;;18.87;100.00
70370;BME280;57790;51.356;-2.906;2023-05-21T11:08:46;102330.31;;;18.91;100.00
70370;BME280;57790;51.356;-2.906;2023-05-21T11:11:51;102324.94;;;18.91;100.00
70370;BME280;57790;51.356;-2.906;2023-05-21T11:14:55;102325.25;;;18.96;100.00
70370;BME280;57790;51.356;-2.906;2023-05-21T11:17:56;102313.94;;;19.01;100.00
70370;BME280;57790;51.356;-2.906;2023-05-21T11:24:04;102312.19;;;19.08;100.00
70370;BME280;57790;51.356;-2.906;2023-05-21T11:27:05;102308.63;;;19.16;100.00
70370;BME280;57790;51.356;-2.906;2023-05-21T11:30:07;102311.72;;;19.27;100.00
70370;BME280;57790;51.356;-2.906;2023-05-21T11:36:12;102308.94;;;19.36;100.00
70370;BME280;57790;51.356;-2.906;2023-05-21T11:39:17;102308.06;;;19.43;100.00
70370;BME280;57790;51.356;-2.906;2023-05-21T11:42:29;102294.06;;;19.48;100.00
70370;BME280;57790;51.356;-2.906;2023-05-21T11:45:31;102301.41;;;19.54;100.00
70370;BME280;57790;51.356;-2.906;2023-05-21T11:48:32;102304.97;;;19.54;100.00
70370;BME280;57790;51.356;-2.906;2023-05-21T11:51:32;102302.38;;;19.61;100.00
70370;BME280;57790;51.356;-2.906;2023-05-21T11:54:38;102292.81;;;19.73;100.00
70370;BME280;57790;51.356;-2.906;2023-05-21T11:57:40;102294.13;;;19.77;100.00
70370;BME280;57790;51.356;-2.906;2023-05-21T12:00:41;102294.75;;;19.79;100.00
70370;BME280;57790;51.356;-2.906;2023-05-21T12:03:42;102291.53;;;19.84;100.00
70370;BME280;57790;51.356;-2.906;2023-05-21T12:06:42;102293.47;;;19.90;100.00
70370;BME280;57790;51.356;-2.906;2023-05-21T12:09:50;102288.66;;;20.00;100.00
70370;BME280;57790;51.356;-2.906;2023-05-21T12:12:50;102290.13;;;20.03;100.00
70370;BME280;57790;51.356;-2.906;2023-05-21T12:15:52;102288.66;;;20.00;100.00
70370;BME280;57790;51.356;-2.906;2023-05-21T12:18:53;102291.72;;;20.12;100.00
70370;BME280;57790;51.356;-2.906;2023-05-21T12:21:53;102288.44;;;20.16;100.00
70370;BME280;57790;51.356;-2.906;2023-05-21T12:24:54;102294.00;;;20.30;100.00
70370;BME280;57790;51.356;-2.906;2023-05-21T12:27:57;102286.56;;;20.32;100.00
70370;BME280;57790;51.356;-2.906;2023-05-21T12:30:59;102291.75;;;20.33;100.00
70370;BME280;57790;51.356;-2.906;2023-05-21T12:34:00;102289.31;;;20.38;100.00
70370;BME280;57790;51.356;-2.906;2023-05-21T12:37:01;102293.38;;;20.42;100.00
70370;BME280;57790;51.356;-2.906;2023-05-21T12:40:03;102281.56;;;20.43;100.00
70370;BME280;57790;51.356;-2.906;2023-05-21T12:43:10;102291.56;;;20.49;100.00
70370;BME280;57790;51.356;-2.906;2023-05-21T12:46:11;102286.81;;;20.52;100.00
70370;BME280;57790;51.356;-2.906;2023-05-21T12:49:40;102279.47;;;20.60;100.00
70370;BME280;57790;51.356;-2.906;2023-05-21T12:52:40;102282.41;;;20.65;100.00
70370;BME280;57790;51.356;-2.906;2023-05-21T12:55:42;102282.50;;;20.72;100.00
70370;BME280;57790;51.356;-2.906;2023-05-21T12:58:48;102282.94;;;20.75;100.00
70370;BME280;57790;51.356;-2.906;2023-05-21T13:01:50;102280.88;;;20.77;100.00
70370;BME280;57790;51.356;-2.906;2023-05-21T13:07:58;102271.84;;;20.85;100.00
70370;BME280;57790;51.356;-2.906;2023-05-21T13:10:59;102276.84;;;20.88;100.00
70370;BME280;57790;51.356;-2.906;2023-05-21T13:13:59;102273.56;;;20.93;100.00
70370;BME280;57790;51.356;-2.906;2023-05-21T13:17:00;102271.16;;;20.98;100.00
70370;BME280;57790;51.356;-2.906;2023-05-21T13:23:08;102265.78;;;21.04;100.00
70370;BME280;57790;51.356;-2.906;2023-05-21T13:26:08;102252.81;;;21.15;100.00
70370;BME280;57790;51.356;-2.906;2023-05-21T13:29:09;102263.44;;;21.23;100.00
70370;BME280;57790;51.356;-2.906;2023-05-21T13:32:09;102266.16;;;21.23;100.00
70370;BME280;57790;51.356;-2.906;2023-05-21T13:35:10;102255.16;;;21.24;100.00
70370;BME280;57790;51.356;-2.906;2023-05-21T13:38:11;102260.13;;;21.21;100.00
70370;BME280;57790;51.356;-2.906;2023-05-21T13:41:11;102265.91;;;21.18;100.00
70370;BME280;57790;51.356;-2.906;2023-05-21T13:44:11;102258.25;;;21.21;100.00
70370;BME280;57790;51.356;-2.906;2023-05-21T13:47:12;102255.00;;;21.26;100.00
70370;BME280;57790;51.356;-2.906;2023-05-21T13:50:12;102262.09;;;21.27;100.00
70370;BME280;57790;51.356;-2.906;2023-05-21T13:53:13;102253.59;;;21.30;100.00
70370;BME280;57790;51.356;-2.906;2023-05-21T13:56:13;102254.84;;;21.34;100.00
70370;BME280;57790;51.356;-2.906;2023-05-21T13:59:14;102250.53;;;21.39;100.00
70370;BME280;57790;51.356;-2.906;2023-05-21T14:02:14;102253.88;;;21.42;100.00
70370;BME280;57790;51.356;-2.906;2023-05-21T14:05:14;102247.25;;;21.44;100.00
70370;BME280;57790;51.356;-2.906;2023-05-21T14:08:15;102245.19;;;21.46;100.00
70370;BME280;57790;51.356;-2.906;2023-05-21T14:11:18;102243.75;;;21.50;100.00
70370;BME280;57790;51.356;-2.906;2023-05-21T14:14:21;102243.81;;;21.57;100.00
70370;BME280;57790;51.356;-2.906;2023-05-21T14:17:21;102240.91;;;21.58;100.00
70370;BME280;57790;51.356;-2.906;2023-05-21T14:20:22;102239.06;;;21.65;100.00
70370;BME280;57790;51.356;-2.906;2023-05-21T14:23:22;102235.81;;;21.70;100.00
70370;BME280;57790;51.356;-2.906;2023-05-21T14:26:22;102230.84;;;21.80;100.00
70370;BME280;57790;51.356;-2.906;2023-05-21T14:29:23;102229.84;;;21.88;100.00
70370;BME280;57790;51.356;-2.906;2023-05-21T14:32:23;102234.84;;;21.91;100.00
70370;BME280;57790;51.356;-2.906;2023-05-21T14:35:24;102239.00;;;21.93;100.00
70370;BME280;57790;51.356;-2.906;2023-05-21T14:38:24;102234.66;;;21.92;100.00
70370;BME280;57790;51.356;-2.906;2023-05-21T14:41:25;102235.91;;;21.96;100.00
70370;BME280;57790;51.356;-2.906;2023-05-21T14:44:26;102230.31;;;21.98;100.00
70370;BME280;57790;51.356;-2.906;2023-05-21T14:47:27;102228.06;;;22.02;100.00
70370;BME280;57790;51.356;-2.906;2023-05-21T14:50:27;102224.94;;;22.05;100.00
70370;BME280;57790;51.356;-2.906;2023-05-21T14:53:27;102231.44;;;22.10;100.00
70370;BME280;57790;51.356;-2.906;2023-05-21T14:56:28;102225.66;;;22.13;99.25
70370;BME280;57790;51.356;-2.906;2023-05-21T14:59:28;102225.22;;;22.16;100.00
70370;BME280;57790;51.356;-2.906;2023-05-21T15:02:28;102223.34;;;22.17;100.00
70370;BME280;57790;51.356;-2.906;2023-05-21T15:05:29;102228.16;;;22.21;100.00
70370;BME280;57790;51.356;-2.906;2023-05-21T15:08:30;102216.09;;;22.24;100.00
70370;BME280;57790;51.356;-2.906;2023-05-21T15:11:30;102223.16;;;22.25;100.00
70370;BME280;57790;51.356;-2.906;2023-05-21T15:14:33;102214.47;;;22.30;100.00
70370;BME280;57790;51.356;-2.906;2023-05-21T15:17:34;102229.03;;;22.35;99.83
70370;BME280;57790;51.356;-2.906;2023-05-21T15:20:34;102215.09;;;22.38;99.65
70370;BME280;57790;51.356;-2.906;2023-05-21T15:23:35;102208.88;;;22.44;98.21
70370;BME280;57790;51.356;-2.906;2023-05-21T15:26:35;102212.63;;;22.43;98.34
70370;BME280;57790;51.356;-2.906;2023-05-21T15:29:36;102207.63;;;22.47;100.00
70370;BME280;57790;51.356;-2.906;2023-05-21T15:32:37;102203.69;;;22.49;98.26
70370;BME280;57790;51.356;-2.906;2023-05-21T15:35:37;102205.13;;;22.52;97.01
70370;BME280;57790;51.356;-2.906;2023-05-21T15:38:38;102193.06;;;22.54;95.90
70370;BME280;57790;51.356;-2.906;2023-05-21T15:41:38;102199.09;;;22.56;97.77
70370;BME280;57790;51.356;-2.906;2023-05-21T15:44:39;102190.81;;;22.58;96.81
70370;BME280;57790;51.356;-2.906;2023-05-21T15:47:40;102199.34;;;22.62;99.00
70370;BME280;57790;51.356;-2.906;2023-05-21T15:50:40;102195.19;;;22.66;96.92
70370;BME280;57790;51.356;-2.906;2023-05-21T15:53:41;102199.34;;;22.68;94.46
70370;BME280;57790;51.356;-2.906;2023-05-21T15:56:43;102207.88;;;22.72;98.32